sensor_id;sensor_type;location;lat;lon;timestamp;pressure;altitude;pressure_sealevel;temperature;humidity
24336;BME280;33098;52.400;16.880;2023-01-29T00:01:38;101806.34;;;0.68;73.39
24336;BME280;33098;52.400;16.880;2023-01-29T00:04:05;101806.67;;;0.70;73.55
24336;BME280;33098;52.400;16.880;2023-01-29T00:06:33;101805.35;;;0.64;73.58
24336;BME280;33098;52.400;16.880;2023-01-29T00:09:00;101792.55;;;0.55;73.78
24336;BME280;33098;52.400;16.880;2023-01-29T00:11:31;101781.29;;;0.50;73.89
24336;BME280;33098;52.400;16.880;2023-01-29T00:14:01;101779.72;;;0.49;74.14
24336;BME280;33098;52.400;16.880;2023-01-29T00:16:30;101785.80;;;0.40;74.26
24336;BME280;33098;52.400;16.880;2023-01-29T00:19:00;101780.01;;;0.29;74.21
24336;BME280;33098;52.400;16.880;2023-01-29T00:21:30;101768.96;;;0.21;74.26
24336;BME280;33098;52.400;16.880;2023-01-29T00:23:58;101757.72;;;0.25;74.36
24336;BME280;33098;52.400;16.880;2023-01-29T00:26:26;101759.27;;;0.27;74.31
24336;BME280;33098;52.400;16.880;2023-01-29T00:28:55;101761.42;;;0.35;74.45
24336;BME280;33098;52.400;16.880;2023-01-29T00:31:28;101751.52;;;0.32;74.36
24336;BME280;33098;52.400;16.880;2023-01-29T00:33:56;101750.25;;;0.23;74.21
24336;BME280;33098;52.400;16.880;2023-01-29T00:36:26;101748.92;;;0.18;74.37
24336;BME280;33098;52.400;16.880;2023-01-29T00:38:59;101746.88;;;0.15;74.51
24336;BME280;33098;52.400;16.880;2023-01-29T00:41:36;101745.01;;;0.11;74.53
24336;BME280;33098;52.400;16.880;2023-01-29T00:44:23;101742.71;;;0.12;74.49
24336;BME280;33098;52.400;16.880;2023-01-29T00:47:11;101737.52;;;0.09;74.59
24336;BME280;33098;52.400;16.880;2023-01-29T00:50:00;101737.91;;;0.07;74.63
24336;BME280;33098;52.400;16.880;2023-01-29T00:52:28;101739.34;;;0.04;74.73
24336;BME280;33098;52.400;16.880;2023-01-29T00:54:57;101741.64;;;0.14;74.88
24336;BME280;33098;52.400;16.880;2023-01-29T00:57:33;101745.52;;;0.24;74.98
24336;BME280;33098;52.400;16.880;2023-01-29T01:00:02;101741.77;;;0.29;74.79
24336;BME280;33098;52.400;16.880;2023-01-29T01:02:31;101736.30;;;0.33;74.75
24336;BME280;33098;52.400;16.880;2023-01-29T01:05:17;101743.56;;;0.26;74.57
24336;BME280;33098;52.400;16.880;2023-01-29T01:07:47;101753.33;;;0.14;74.48
24336;BME280;33098;52.400;16.880;2023-01-29T01:10:20;101753.77;;;0.10;74.52
24336;BME280;33098;52.400;16.880;2023-01-29T01:15:37;101759.92;;;0.05;74.55
24336;BME280;33098;52.400;16.880;2023-01-29T01:18:06;101753.96;;;-0.06;74.64
24336;BME280;33098;52.400;16.880;2023-01-29T01:20:35;101746.83;;;-0.07;74.73
24336;BME280;33098;52.400;16.880;2023-01-29T01:23:04;101741.89;;;-0.04;74.76
24336;BME280;33098;52.400;16.880;2023-01-29T01:25:35;101737.70;;;-0.04;74.84
24336;BME280;33098;52.400;16.880;2023-01-29T01:28:02;101739.94;;;-0.02;74.81
24336;BME280;33098;52.400;16.880;2023-01-29T01:30:32;101738.08;;;0.07;74.86
24336;BME280;33098;52.400;16.880;2023-01-29T01:33:00;101734.76;;;0.07;74.90
24336;BME280;33098;52.400;16.880;2023-01-29T01:35:37;101731.85;;;0.05;74.78
24336;BME280;33098;52.400;16.880;2023-01-29T01:38:05;101734.08;;;0.07;74.87
24336;BME280;33098;52.400;16.880;2023-01-29T01:40:43;101732.98;;;0.09;74.90
24336;BME280;33098;52.400;16.880;2023-01-29T01:43:14;101735.39;;;0.12;74.92
24336;BME280;33098;52.400;16.880;2023-01-29T01:45:41;101746.16;;;0.15;74.89
24336;BME280;33098;52.400;16.880;2023-01-29T01:48:21;101740.08;;;0.14;74.84
24336;BME280;33098;52.400;16.880;2023-01-29T01:50:57;101735.20;;;0.13;74.81
24336;BME280;33098;52.400;16.880;2023-01-29T01:53:36;101733.17;;;0.08;74.85
24336;BME280;33098;52.400;16.880;2023-01-29T01:56:18;101732.02;;;0.04;74.78
24336;BME280;33098;52.400;16.880;2023-01-29T01:58:54;101734.65;;;0.03;75.01
24336;BME280;33098;52.400;16.880;2023-01-29T02:01:24;101729.90;;;0.05;75.20
24336;BME280;33098;52.400;16.880;2023-01-29T02:04:05;101733.05;;;0.04;75.12
24336;BME280;33098;52.400;16.880;2023-01-29T02:06:55;101729.44;;;0.01;75.15
24336;BME280;33098;52.400;16.880;2023-01-29T02:12:26;101732.85;;;-0.06;75.18
24336;BME280;33098;52.400;16.880;2023-01-29T02:15:01;101730.27;;;-0.08;75.38
24336;BME280;33098;52.400;16.880;2023-01-29T02:17:28;101729.31;;;-0.03;75.43
24336;BME280;33098;52.400;16.880;2023-01-29T02:20:14;101725.16;;;-0.06;75.38
24336;BME280;33098;52.400;16.880;2023-01-29T02:31:23;101730.86;;;-0.14;75.63
24336;BME280;33098;52.400;16.880;2023-01-29T02:36:54;101730.05;;;-0.18;76.32
24336;BME280;33098;52.400;16.880;2023-01-29T02:39:34;101711.14;;;-0.14;76.32
24336;BME280;33098;52.400;16.880;2023-01-29T02:42:29;101711.54;;;-0.05;76.34
24336;BME280;33098;52.400;16.880;2023-01-29T02:45:02;101716.58;;;-0.03;76.36
24336;BME280;33098;52.400;16.880;2023-01-29T02:47:59;101714.09;;;0.01;76.51
24336;BME280;33098;52.400;16.880;2023-01-29T02:50:36;101709.52;;;0.03;76.47
24336;BME280;33098;52.400;16.880;2023-01-29T02:53:35;101716.01;;;0.00;76.63
24336;BME280;33098;52.400;16.880;2023-01-29T02:56:20;101719.86;;;-0.01;76.59
24336;BME280;33098;52.400;16.880;2023-01-29T02:58:56;101715.23;;;-0.06;76.46
24336;BME280;33098;52.400;16.880;2023-01-29T03:01:35;101719.25;;;-0.07;76.71
24336;BME280;33098;52.400;16.880;2023-01-29T03:04:13;101712.34;;;-0.11;76.66
24336;BME280;33098;52.400;16.880;2023-01-29T03:07:05;101709.86;;;-0.09;76.71
24336;BME280;33098;52.400;16.880;2023-01-29T03:09:58;101708.05;;;-0.04;76.80
24336;BME280;33098;52.400;16.880;2023-01-29T03:12:32;101707.49;;;-0.02;76.93
24336;BME280;33098;52.400;16.880;2023-01-29T03:15:08;101701.80;;;0.06;76.98
24336;BME280;33098;52.400;16.880;2023-01-29T03:18:02;101704.53;;;0.09;76.86
24336;BME280;33098;52.400;16.880;2023-01-29T03:20:39;101703.12;;;-0.01;76.75
24336;BME280;33098;52.400;16.880;2023-01-29T03:23:27;101691.64;;;-0.05;76.85
24336;BME280;33098;52.400;16.880;2023-01-29T03:26:20;101678.48;;;0.00;76.96
24336;BME280;33098;52.400;16.880;2023-01-29T03:29:09;101676.59;;;-0.01;76.89
24336;BME280;33098;52.400;16.880;2023-01-29T03:32:00;101674.16;;;-0.02;77.02
24336;BME280;33098;52.400;16.880;2023-01-29T03:34:48;101669.48;;;-0.05;76.66
24336;BME280;33098;52.400;16.880;2023-01-29T03:37:34;101668.75;;;-0.03;76.95
24336;BME280;33098;52.400;16.880;2023-01-29T03:40:08;101660.13;;;0.02;76.88
24336;BME280;33098;52.400;16.880;2023-01-29T03:43:13;101650.70;;;0.02;76.76
24336;BME280;33098;52.400;16.880;2023-01-29T03:46:04;101646.84;;;0.04;77.07
24336;BME280;33098;52.400;16.880;2023-01-29T03:54:20;101644.55;;;0.16;76.88
24336;BME280;33098;52.400;16.880;2023-01-29T04:00:01;101628.90;;;0.23;76.67
24336;BME280;33098;52.400;16.880;2023-01-29T04:02:54;101633.59;;;0.25;76.64
24336;BME280;33098;52.400;16.880;2023-01-29T04:05:31;101635.54;;;0.23;76.67
24336;BME280;33098;52.400;16.880;2023-01-29T04:08:21;101633.67;;;0.19;76.36
24336;BME280;33098;52.400;16.880;2023-01-29T04:10:53;101628.39;;;0.23;76.65
24336;BME280;33098;52.400;16.880;2023-01-29T04:13:29;101613.83;;;0.26;76.65
24336;BME280;33098;52.400;16.880;2023-01-29T04:16:00;101619.64;;;0.33;76.67
24336;BME280;33098;52.400;16.880;2023-01-29T04:18:46;101619.65;;;0.23;76.46
24336;BME280;33098;52.400;16.880;2023-01-29T04:21:24;101611.55;;;0.16;76.44
24336;BME280;33098;52.400;16.880;2023-01-29T04:23:51;101603.40;;;0.13;76.60
24336;BME280;33098;52.400;16.880;2023-01-29T04:31:34;101594.69;;;0.12;76.78
24336;BME280;33098;52.400;16.880;2023-01-29T04:34:22;101592.22;;;0.13;76.78
24336;BME280;33098;52.400;16.880;2023-01-29T04:42:34;101585.23;;;0.13;77.10
24336;BME280;33098;52.400;16.880;2023-01-29T04:45:36;101580.48;;;0.16;77.20
24336;BME280;33098;52.400;16.880;2023-01-29T04:48:20;101580.95;;;0.19;77.37
24336;BME280;33098;52.400;16.880;2023-01-29T04:51:21;101571.61;;;0.14;77.76
24336;BME280;33098;52.400;16.880;2023-01-29T04:56:47;101558.83;;;0.16;77.89
24336;BME280;33098;52.400;16.880;2023-01-29T04:59:25;101557.23;;;0.17;77.83
24336;BME280;33098;52.400;16.880;2023-01-29T05:01:59;101563.95;;;0.13;78.55
24336;BME280;33098;52.400;16.880;2023-01-29T05:04:39;101569.23;;;-0.01;78.33
24336;BME280;33098;52.400;16.880;2023-01-29T05:07:11;101570.56;;;0.04;78.50
24336;BME280;33098;52.400;16.880;2023-01-29T05:09:45;101572.39;;;-0.01;78.66
24336;BME280;33098;52.400;16.880;2023-01-29T05:12:21;101570.48;;;-0.02;78.73
24336;BME280;33098;52.400;16.880;2023-01-29T05:14:52;101564.89;;;0.09;78.83
24336;BME280;33098;52.400;16.880;2023-01-29T05:17:21;101557.13;;;0.13;78.61
24336;BME280;33098;52.400;16.880;2023-01-29T05:19:51;101553.46;;;0.12;78.64
24336;BME280;33098;52.400;16.880;2023-01-29T05:22:19;101541.47;;;0.10;78.56
24336;BME280;33098;52.400;16.880;2023-01-29T05:24:51;101548.06;;;0.12;78.46
24336;BME280;33098;52.400;16.880;2023-01-29T05:27:36;101553.08;;;0.15;78.63
24336;BME280;33098;52.400;16.880;2023-01-29T05:30:22;101560.08;;;0.15;78.27
24336;BME280;33098;52.400;16.880;2023-01-29T05:32:50;101561.64;;;0.15;78.31
24336;BME280;33098;52.400;16.880;2023-01-29T05:35:20;101554.92;;;0.21;78.56
24336;BME280;33098;52.400;16.880;2023-01-29T05:37:49;101548.85;;;0.28;78.32
24336;BME280;33098;52.400;16.880;2023-01-29T05:40:22;101545.63;;;0.23;77.97
24336;BME280;33098;52.400;16.880;2023-01-29T05:42:55;101546.63;;;0.25;78.15
24336;BME280;33098;52.400;16.880;2023-01-29T05:45:22;101550.95;;;0.17;77.99
24336;BME280;33098;52.400;16.880;2023-01-29T05:47:49;101559.34;;;0.15;78.13
24336;BME280;33098;52.400;16.880;2023-01-29T05:50:19;101563.43;;;0.13;78.07
24336;BME280;33098;52.400;16.880;2023-01-29T05:52:47;101566.71;;;0.15;78.26
24336;BME280;33098;52.400;16.880;2023-01-29T05:55:22;101567.89;;;0.17;78.18
24336;BME280;33098;52.400;16.880;2023-01-29T05:57:49;101566.64;;;0.19;78.28
24336;BME280;33098;52.400;16.880;2023-01-29T06:00:19;101561.73;;;0.20;78.12
24336;BME280;33098;52.400;16.880;2023-01-29T06:02:46;101558.80;;;0.19;78.28
24336;BME280;33098;52.400;16.880;2023-01-29T06:05:19;101558.88;;;0.24;78.40
24336;BME280;33098;52.400;16.880;2023-01-29T06:07:51;101565.04;;;0.21;78.41
24336;BME280;33098;52.400;16.880;2023-01-29T06:10:19;101572.98;;;0.15;78.55
24336;BME280;33098;52.400;16.880;2023-01-29T06:12:46;101579.23;;;0.16;78.99
24336;BME280;33098;52.400;16.880;2023-01-29T06:15:19;101589.61;;;0.13;79.71
24336;BME280;33098;52.400;16.880;2023-01-29T06:17:46;101584.77;;;-0.00;80.49
24336;BME280;33098;52.400;16.880;2023-01-29T06:20:15;101584.94;;;0.01;80.61
24336;BME280;33098;52.400;16.880;2023-01-29T06:22:48;101577.89;;;0.05;80.76
24336;BME280;33098;52.400;16.880;2023-01-29T06:25:15;101573.75;;;0.01;81.66
24336;BME280;33098;52.400;16.880;2023-01-29T06:27:51;101569.55;;;-0.09;81.99
24336;BME280;33098;52.400;16.880;2023-01-29T06:30:24;101576.84;;;-0.07;82.35
24336;BME280;33098;52.400;16.880;2023-01-29T06:32:55;101582.73;;;-0.04;82.44
24336;BME280;33098;52.400;16.880;2023-01-29T06:35:29;101596.84;;;-0.02;83.11
24336;BME280;33098;52.400;16.880;2023-01-29T06:37:57;101600.75;;;-0.07;83.12
24336;BME280;33098;52.400;16.880;2023-01-29T06:40:23;101602.60;;;-0.03;83.29
24336;BME280;33098;52.400;16.880;2023-01-29T06:42:54;101599.42;;;0.01;84.17
24336;BME280;33098;52.400;16.880;2023-01-29T06:45:24;101601.14;;;-0.09;84.11
24336;BME280;33098;52.400;16.880;2023-01-29T06:47:51;101602.32;;;-0.18;84.55
24336;BME280;33098;52.400;16.880;2023-01-29T06:50:21;101602.26;;;-0.25;85.52
24336;BME280;33098;52.400;16.880;2023-01-29T06:52:48;101597.39;;;-0.26;86.45
24336;BME280;33098;52.400;16.880;2023-01-29T06:55:19;101596.34;;;-0.27;87.85
24336;BME280;33098;52.400;16.880;2023-01-29T06:57:49;101596.59;;;-0.31;87.62
24336;BME280;33098;52.400;16.880;2023-01-29T07:00:19;101595.94;;;-0.34;88.71
24336;BME280;33098;52.400;16.880;2023-01-29T07:02:50;101585.92;;;-0.30;88.56
24336;BME280;33098;52.400;16.880;2023-01-29T07:05:17;101586.13;;;-0.20;88.51
24336;BME280;33098;52.400;16.880;2023-01-29T07:07:45;101584.88;;;-0.19;88.33
24336;BME280;33098;52.400;16.880;2023-01-29T07:10:12;101579.60;;;-0.16;88.37
24336;BME280;33098;52.400;16.880;2023-01-29T07:12:45;101565.38;;;-0.10;88.10
24336;BME280;33098;52.400;16.880;2023-01-29T07:15:15;101560.90;;;-0.03;88.32
24336;BME280;33098;52.400;16.880;2023-01-29T07:18:02;101559.92;;;0.03;87.91
24336;BME280;33098;52.400;16.880;2023-01-29T07:20:31;101561.85;;;0.03;87.77
24336;BME280;33098;52.400;16.880;2023-01-29T07:23:02;101563.02;;;0.06;87.77
24336;BME280;33098;52.400;16.880;2023-01-29T07:25:32;101562.00;;;0.14;87.84
24336;BME280;33098;52.400;16.880;2023-01-29T07:28:00;101553.23;;;0.17;87.65
24336;BME280;33098;52.400;16.880;2023-01-29T07:30:28;101555.13;;;0.18;87.96
24336;BME280;33098;52.400;16.880;2023-01-29T07:33:01;101550.77;;;0.17;88.55
24336;BME280;33098;52.400;16.880;2023-01-29T07:35:29;101552.52;;;0.18;89.13
24336;BME280;33098;52.400;16.880;2023-01-29T07:37:56;101542.75;;;0.27;89.38
24336;BME280;33098;52.400;16.880;2023-01-29T07:40:24;101546.05;;;0.37;89.22
24336;BME280;33098;52.400;16.880;2023-01-29T07:42:57;101550.65;;;0.44;88.83
24336;BME280;33098;52.400;16.880;2023-01-29T07:45:25;101549.00;;;0.48;88.64
24336;BME280;33098;52.400;16.880;2023-01-29T07:47:54;101542.02;;;0.48;88.50
24336;BME280;33098;52.400;16.880;2023-01-29T07:50:33;101540.94;;;0.50;88.46
24336;BME280;33098;52.400;16.880;2023-01-29T07:53:01;101551.91;;;0.60;88.40
24336;BME280;33098;52.400;16.880;2023-01-29T07:55:33;101552.05;;;0.62;88.29
24336;BME280;33098;52.400;16.880;2023-01-29T07:58:02;101559.30;;;0.57;88.29
24336;BME280;33098;52.400;16.880;2023-01-29T08:00:30;101559.98;;;0.49;88.05
24336;BME280;33098;52.400;16.880;2023-01-29T08:03:08;101564.48;;;0.42;88.26
24336;BME280;33098;52.400;16.880;2023-01-29T08:05:35;101568.23;;;0.38;88.32
24336;BME280;33098;52.400;16.880;2023-01-29T08:08:03;101571.79;;;0.34;88.63
24336;BME280;33098;52.400;16.880;2023-01-29T08:10:35;101573.70;;;0.44;88.84
24336;BME280;33098;52.400;16.880;2023-01-29T08:13:13;101574.45;;;0.49;88.89
24336;BME280;33098;52.400;16.880;2023-01-29T08:15:47;101578.93;;;0.54;88.66
24336;BME280;33098;52.400;16.880;2023-01-29T08:18:21;101578.56;;;0.46;89.22
24336;BME280;33098;52.400;16.880;2023-01-29T08:20:59;101578.48;;;0.41;89.31
24336;BME280;33098;52.400;16.880;2023-01-29T08:23:35;101582.10;;;0.33;89.55
24336;BME280;33098;52.400;16.880;2023-01-29T08:26:03;101576.55;;;0.31;89.47
24336;BME280;33098;52.400;16.880;2023-01-29T08:28:30;101575.08;;;0.35;89.85
24336;BME280;33098;52.400;16.880;2023-01-29T08:30:58;101569.80;;;0.28;90.01
24336;BME280;33098;52.400;16.880;2023-01-29T08:33:30;101569.15;;;0.35;90.15
24336;BME280;33098;52.400;16.880;2023-01-29T08:36:01;101560.20;;;0.37;90.29
24336;BME280;33098;52.400;16.880;2023-01-29T08:38:32;101547.91;;;0.41;90.13
24336;BME280;33098;52.400;16.880;2023-01-29T08:41:02;101543.26;;;0.38;89.83
24336;BME280;33098;52.400;16.880;2023-01-29T08:43:35;101532.30;;;0.44;89.90
24336;BME280;33098;52.400;16.880;2023-01-29T08:46:06;101520.40;;;0.54;89.91
24336;BME280;33098;52.400;16.880;2023-01-29T08:48:34;101517.89;;;0.58;89.81
24336;BME280;33098;52.400;16.880;2023-01-29T08:51:08;101517.64;;;0.62;89.75
24336;BME280;33098;52.400;16.880;2023-01-29T08:53:35;101516.04;;;0.63;89.78
24336;BME280;33098;52.400;16.880;2023-01-29T08:56:05;101512.49;;;0.57;89.73
24336;BME280;33098;52.400;16.880;2023-01-29T08:58:33;101521.92;;;0.57;90.14
24336;BME280;33098;52.400;16.880;2023-01-29T09:01:07;101524.69;;;0.49;90.38
24336;BME280;33098;52.400;16.880;2023-01-29T09:03:35;101523.86;;;0.47;90.78
24336;BME280;33098;52.400;16.880;2023-01-29T09:06:03;101515.49;;;0.46;90.72
24336;BME280;33098;52.400;16.880;2023-01-29T09:08:31;101509.88;;;0.48;91.15
24336;BME280;33098;52.400;16.880;2023-01-29T09:10:59;101513.67;;;0.50;91.09
24336;BME280;33098;52.400;16.880;2023-01-29T09:13:27;101518.30;;;0.55;91.28
24336;BME280;33098;52.400;16.880;2023-01-29T09:16:00;101522.14;;;0.55;91.39
24336;BME280;33098;52.400;16.880;2023-01-29T09:18:29;101523.63;;;0.60;91.48
24336;BME280;33098;52.400;16.880;2023-01-29T09:20:57;101524.17;;;0.58;91.35
24336;BME280;33098;52.400;16.880;2023-01-29T09:23:24;101524.23;;;0.64;91.70
24336;BME280;33098;52.400;16.880;2023-01-29T09:25:52;101520.41;;;0.72;91.44
24336;BME280;33098;52.400;16.880;2023-01-29T09:28:20;101520.02;;;0.74;91.62
24336;BME280;33098;52.400;16.880;2023-01-29T09:30:50;101518.80;;;0.73;91.86
24336;BME280;33098;52.400;16.880;2023-01-29T09:33:17;101519.57;;;0.79;91.84
24336;BME280;33098;52.400;16.880;2023-01-29T09:35:45;101522.63;;;0.74;91.67
24336;BME280;33098;52.400;16.880;2023-01-29T09:38:15;101527.04;;;0.72;91.72
24336;BME280;33098;52.400;16.880;2023-01-29T09:46:42;101526.02;;;0.80;91.46
24336;BME280;33098;52.400;16.880;2023-01-29T09:49:28;101521.35;;;0.77;91.93
24336;BME280;33098;52.400;16.880;2023-01-29T09:52:14;101515.03;;;0.78;91.97
24336;BME280;33098;52.400;16.880;2023-01-29T09:57:24;101528.52;;;0.76;92.45
24336;BME280;33098;52.400;16.880;2023-01-29T10:00:00;101523.86;;;0.83;92.82
24336;BME280;33098;52.400;16.880;2023-01-29T10:05:39;101522.76;;;0.69;92.77
24336;BME280;33098;52.400;16.880;2023-01-29T10:25:20;101486.55;;;0.53;93.90
24336;BME280;33098;52.400;16.880;2023-01-29T10:27:56;101479.56;;;0.53;93.95
24336;BME280;33098;52.400;16.880;2023-01-29T10:30:36;101474.29;;;0.46;94.62
24336;BME280;33098;52.400;16.880;2023-01-29T10:33:08;101472.74;;;0.35;94.74
24336;BME280;33098;52.400;16.880;2023-01-29T10:35:42;101469.19;;;0.38;94.72
24336;BME280;33098;52.400;16.880;2023-01-29T10:38:23;101459.86;;;0.42;95.05
24336;BME280;33098;52.400;16.880;2023-01-29T10:44:23;101455.64;;;0.52;95.40
24336;BME280;33098;52.400;16.880;2023-01-29T11:00:55;101425.64;;;0.90;94.73
24336;BME280;33098;52.400;16.880;2023-01-29T11:03:32;101427.78;;;0.89;94.61
24336;BME280;33098;52.400;16.880;2023-01-29T11:06:20;101427.11;;;0.79;94.40
24336;BME280;33098;52.400;16.880;2023-01-29T11:08:58;101427.31;;;0.87;94.92
24336;BME280;33098;52.400;16.880;2023-01-29T11:11:42;101421.64;;;0.82;94.74
24336;BME280;33098;52.400;16.880;2023-01-29T11:14:20;101425.46;;;0.75;95.37
24336;BME280;33098;52.400;16.880;2023-01-29T11:16:52;101424.95;;;0.74;95.15
24336;BME280;33098;52.400;16.880;2023-01-29T11:19:40;101430.48;;;0.85;95.58
24336;BME280;33098;52.400;16.880;2023-01-29T11:22:25;101425.52;;;0.89;95.39
24336;BME280;33098;52.400;16.880;2023-01-29T11:28:02;101407.17;;;0.72;95.93
24336;BME280;33098;52.400;16.880;2023-01-29T11:30:37;101404.48;;;0.68;96.37
24336;BME280;33098;52.400;16.880;2023-01-29T11:33:18;101410.56;;;0.69;96.44
24336;BME280;33098;52.400;16.880;2023-01-29T11:35:50;101409.19;;;0.68;96.74
24336;BME280;33098;52.400;16.880;2023-01-29T11:38:26;101404.45;;;0.61;96.99
24336;BME280;33098;52.400;16.880;2023-01-29T11:41:05;101395.54;;;0.61;97.18
24336;BME280;33098;52.400;16.880;2023-01-29T11:43:36;101378.73;;;0.71;97.10
24336;BME280;33098;52.400;16.880;2023-01-29T11:46:12;101374.02;;;0.78;97.06
24336;BME280;33098;52.400;16.880;2023-01-29T11:48:47;101368.47;;;0.76;96.90
24336;BME280;33098;52.400;16.880;2023-01-29T11:51:26;101354.86;;;0.75;97.31
24336;BME280;33098;52.400;16.880;2023-01-29T11:54:03;101348.78;;;0.74;97.64
24336;BME280;33098;52.400;16.880;2023-01-29T11:56:38;101352.36;;;0.85;97.62
24336;BME280;33098;52.400;16.880;2023-01-29T11:59:40;101351.35;;;0.91;97.46
24336;BME280;33098;52.400;16.880;2023-01-29T12:02:52;101348.60;;;0.89;97.28
24336;BME280;33098;52.400;16.880;2023-01-29T12:05:19;101338.83;;;0.95;97.22
24336;BME280;33098;52.400;16.880;2023-01-29T12:07:55;101336.21;;;0.96;97.23
24336;BME280;33098;52.400;16.880;2023-01-29T12:10:33;101333.10;;;0.87;97.02
24336;BME280;33098;52.400;16.880;2023-01-29T12:15:47;101336.21;;;1.03;97.41
24336;BME280;33098;52.400;16.880;2023-01-29T12:18:31;101336.50;;;1.12;97.52
24336;BME280;33098;52.400;16.880;2023-01-29T12:21:30;101332.19;;;1.17;97.25
24336;BME280;33098;52.400;16.880;2023-01-29T12:24:05;101318.80;;;1.21;97.21
24336;BME280;33098;52.400;16.880;2023-01-29T12:26:57;101324.69;;;1.30;97.06
24336;BME280;33098;52.400;16.880;2023-01-29T12:29:44;101314.89;;;1.43;97.25
24336;BME280;33098;52.400;16.880;2023-01-29T12:32:49;101315.95;;;1.50;96.85
24336;BME280;33098;52.400;16.880;2023-01-29T12:35:41;101315.25;;;1.43;96.46
24336;BME280;33098;52.400;16.880;2023-01-29T12:38:25;101317.62;;;1.46;96.43
24336;BME280;33098;52.400;16.880;2023-01-29T12:40:59;101310.94;;;1.40;96.00
24336;BME280;33098;52.400;16.880;2023-01-29T12:43:45;101302.93;;;1.39;95.94
24336;BME280;33098;52.400;16.880;2023-01-29T12:46:33;101302.21;;;1.40;96.23
24336;BME280;33098;52.400;16.880;2023-01-29T12:49:12;101307.40;;;1.42;96.03
24336;BME280;33098;52.400;16.880;2023-01-29T12:51:58;101307.52;;;1.44;96.20
24336;BME280;33098;52.400;16.880;2023-01-29T12:54:39;101301.06;;;1.43;96.15
24336;BME280;33098;52.400;16.880;2023-01-29T12:57:41;101299.65;;;1.37;96.27
24336;BME280;33098;52.400;16.880;2023-01-29T13:00:35;101302.83;;;1.23;96.36
24336;BME280;33098;52.400;16.880;2023-01-29T13:03:18;101302.09;;;1.18;97.01
24336;BME280;33098;52.400;16.880;2023-01-29T13:05:54;101296.23;;;1.14;96.91
24336;BME280;33098;52.400;16.880;2023-01-29T13:08:36;101286.41;;;1.16;97.01
24336;BME280;33098;52.400;16.880;2023-01-29T13:11:28;101283.92;;;1.24;97.24
24336;BME280;33098;52.400;16.880;2023-01-29T13:14:39;101275.61;;;1.34;97.68
24336;BME280;33098;52.400;16.880;2023-01-29T13:17:14;101272.69;;;1.32;97.53
24336;BME280;33098;52.400;16.880;2023-01-29T13:19:47;101264.68;;;1.31;97.32
24336;BME280;33098;52.400;16.880;2023-01-29T13:22:23;101261.66;;;1.32;97.34
24336;BME280;33098;52.400;16.880;2023-01-29T13:24:51;101263.10;;;1.44;97.55
24336;BME280;33098;52.400;16.880;2023-01-29T13:27:30;101260.58;;;1.47;97.23
24336;BME280;33098;52.400;16.880;2023-01-29T13:29:58;101263.50;;;1.48;97.15
24336;BME280;33098;52.400;16.880;2023-01-29T13:32:33;101263.64;;;1.37;96.81
24336;BME280;33098;52.400;16.880;2023-01-29T13:35:11;101262.08;;;1.36;97.03
24336;BME280;33098;52.400;16.880;2023-01-29T13:37:48;101265.28;;;1.41;97.36
24336;BME280;33098;52.400;16.880;2023-01-29T13:40:27;101268.39;;;1.49;97.29
24336;BME280;33098;52.400;16.880;2023-01-29T13:42:57;101263.55;;;1.60;97.34
24336;BME280;33098;52.400;16.880;2023-01-29T13:45:44;101262.23;;;1.62;97.16
24336;BME280;33098;52.400;16.880;2023-01-29T13:48:23;101257.05;;;1.60;97.14
24336;BME280;33098;52.400;16.880;2023-01-29T13:50:52;101255.08;;;1.62;97.10
24336;BME280;33098;52.400;16.880;2023-01-29T13:53:31;101255.98;;;1.67;97.06
24336;BME280;33098;52.400;16.880;2023-01-29T13:56:28;101256.40;;;1.65;96.91
24336;BME280;33098;52.400;16.880;2023-01-29T13:58:56;101259.14;;;1.55;96.94
24336;BME280;33098;52.400;16.880;2023-01-29T14:07:00;101241.55;;;1.39;97.44
24336;BME280;33098;52.400;16.880;2023-01-29T14:17:19;101245.60;;;1.63;97.49
24336;BME280;33098;52.400;16.880;2023-01-29T14:19:51;101240.61;;;1.66;97.36
24336;BME280;33098;52.400;16.880;2023-01-29T14:22:22;101241.80;;;1.67;97.25
24336;BME280;33098;52.400;16.880;2023-01-29T14:24:59;101241.37;;;1.70;97.05
24336;BME280;33098;52.400;16.880;2023-01-29T14:27:28;101237.13;;;1.72;96.84
24336;BME280;33098;52.400;16.880;2023-01-29T14:30:05;101234.21;;;1.82;97.02
24336;BME280;33098;52.400;16.880;2023-01-29T14:32:38;101229.20;;;1.79;96.80
24336;BME280;33098;52.400;16.880;2023-01-29T14:35:29;101222.66;;;1.70;96.53
24336;BME280;33098;52.400;16.880;2023-01-29T14:38:03;101227.55;;;1.58;97.00
24336;BME280;33098;52.400;16.880;2023-01-29T14:40:39;101230.92;;;1.56;97.17
24336;BME280;33098;52.400;16.880;2023-01-29T14:43:18;101236.56;;;1.48;97.58
24336;BME280;33098;52.400;16.880;2023-01-29T14:45:49;101227.17;;;1.40;97.62
24336;BME280;33098;52.400;16.880;2023-01-29T14:51:08;101227.02;;;1.33;98.11
24336;BME280;33098;52.400;16.880;2023-01-29T14:57:01;101215.50;;;1.25;98.56
24336;BME280;33098;52.400;16.880;2023-01-29T14:59:43;101213.90;;;1.26;99.27
24336;BME280;33098;52.400;16.880;2023-01-29T15:02:25;101212.80;;;1.22;99.56
24336;BME280;33098;52.400;16.880;2023-01-29T15:05:07;101212.80;;;1.28;99.88
24336;BME280;33098;52.400;16.880;2023-01-29T15:07:56;101206.92;;;1.32;99.96
24336;BME280;33098;52.400;16.880;2023-01-29T15:10:41;101203.54;;;1.28;100.00
24336;BME280;33098;52.400;16.880;2023-01-29T15:13:32;101200.17;;;1.24;100.00
24336;BME280;33098;52.400;16.880;2023-01-29T15:17:06;101197.09;;;1.21;100.00
24336;BME280;33098;52.400;16.880;2023-01-29T15:19:35;101193.43;;;1.27;100.00
24336;BME280;33098;52.400;16.880;2023-01-29T15:22:21;101190.05;;;1.22;100.00
24336;BME280;33098;52.400;16.880;2023-01-29T15:25:12;101189.52;;;1.10;100.00